Time;durP1;ratioP1;P1;durP2;ratioP2;P2;SDS_P1;SDS_P2;PMS_P1;PMS_P2;Temp;Humidity;BMP_temperature;BMP_pressure;BME280_temperature;BME280_humidity;BME280_pressure;Samples;Min_cycle;Max_cycle;Signal;HPM_P1;HPM_P2
2021/05/13 00:00:10;;;;;;;4.07;3.42;;;9.90;99.90;;;;;;5047087;28;20237;-71
2021/05/13 00:02:36;;;;;;;5.00;3.45;;;9.90;99.90;;;;;;5047256;28;20200;-71
2021/05/13 00:05:04;;;;;;;4.28;3.08;;;9.90;99.90;;;;;;5047633;28;20201;-71
2021/05/13 00:07:31;;;;;;;3.83;2.67;;;9.80;99.90;;;;;;5047706;28;20212;-71
2021/05/13 00:09:57;;;;;;;5.13;3.05;;;9.80;99.90;;;;;;5047921;28;20209;-71
2021/05/13 00:12:37;;;;;;;3.67;3.38;;;9.80;99.90;;;;;;5048329;28;20215;-71
2021/05/13 00:15:07;;;;;;;3.38;3.08;;;9.80;99.90;;;;;;5048278;28;20615;-71
2021/05/13 00:17:34;;;;;;;5.25;2.95;;;9.80;99.90;;;;;;5048477;28;20201;-71
2021/05/13 00:20:00;;;;;;;3.22;2.88;;;9.80;99.90;;;;;;5047821;28;20624;-70
2021/05/13 00:22:26;;;;;;;3.40;3.10;;;9.80;99.90;;;;;;5048810;28;20201;-71
2021/05/13 00:24:53;;;;;;;4.72;3.13;;;9.80;99.90;;;;;;5048115;28;20216;-71
2021/05/13 00:27:20;;;;;;;3.28;2.97;;;9.80;99.90;;;;;;5049544;28;20296;-72
2021/05/13 00:29:56;;;;;;;5.60;3.25;;;9.90;99.90;;;;;;5050042;28;20213;-71
2021/05/13 00:32:22;;;;;;;5.40;3.25;;;9.90;99.90;;;;;;5051021;28;20200;-71
2021/05/13 00:34:49;;;;;;;4.70;2.92;;;9.80;99.90;;;;;;5051269;28;20635;-72
2021/05/13 00:37:15;;;;;;;3.80;3.30;;;9.80;99.90;;;;;;5050549;28;20201;-71
2021/05/13 00:39:41;;;;;;;4.32;2.97;;;9.80;99.90;;;;;;5050630;28;20232;-71
2021/05/13 00:42:09;;;;;;;3.15;2.85;;;9.80;99.90;;;;;;5050671;28;20225;-71
2021/05/13 00:44:36;;;;;;;5.40;2.65;;;9.70;99.90;;;;;;5050540;28;20565;-71
2021/05/13 00:47:03;;;;;;;3.97;2.95;;;9.70;99.90;;;;;;5050574;28;20296;-72
2021/05/13 00:49:30;;;;;;;3.33;2.60;;;9.70;99.90;;;;;;5050691;28;20193;-71
2021/05/13 00:51:56;;;;;;;3.95;2.75;;;9.70;99.90;;;;;;5066885;28;20636;-71
2021/05/13 00:54:23;;;;;;;5.22;3.30;;;9.70;99.90;;;;;;5071520;28;20231;-71
2021/05/13 00:56:49;;;;;;;5.20;2.88;;;9.70;99.90;;;;;;5071670;28;20204;-71
2021/05/13 00:59:18;;;;;;;4.35;3.30;;;9.70;99.90;;;;;;5070838;28;20266;-71
2021/05/13 01:01:51;;;;;;;4.38;3.53;;;9.70;99.90;;;;;;5071129;28;20220;-71
2021/05/13 01:04:18;;;;;;;3.38;3.08;;;9.60;99.90;;;;;;5070940;28;20201;-71
2021/05/13 01:06:45;;;;;;;3.67;3.20;;;9.60;99.90;;;;;;5070212;28;20630;-71
2021/05/13 01:09:12;;;;;;;4.30;2.78;;;9.60;99.90;;;;;;5069636;28;20200;-71
2021/05/13 01:11:41;;;;;;;4.85;3.20;;;9.60;99.90;;;;;;5072708;28;20617;-71
2021/05/13 01:14:17;;;;;;;6.35;3.80;;;9.60;99.90;;;;;;5073539;28;20299;-71
2021/05/13 01:16:54;;;;;;;5.35;3.20;;;9.60;99.90;;;;;;5073853;28;20257;-71
2021/05/13 01:19:20;;;;;;;4.15;3.28;;;9.60;99.90;;;;;;5073524;28;20226;-71
2021/05/13 01:21:47;;;;;;;5.40;3.53;;;9.60;99.90;;;;;;5073303;28;20236;-71
2021/05/13 01:24:14;;;;;;;3.63;3.30;;;9.60;99.90;;;;;;5073221;28;20196;-71
2021/05/13 01:26:43;;;;;;;6.57;3.90;;;9.50;99.90;;;;;;5073191;28;20215;-71
2021/05/13 01:29:11;;;;;;;4.32;3.10;;;9.60;99.90;;;;;;5073302;28;20763;-71
2021/05/13 01:31:37;;;;;;;5.07;3.20;;;9.60;99.90;;;;;;5073197;28;20220;-70
2021/05/13 01:34:06;;;;;;;5.18;3.72;;;9.60;99.90;;;;;;5073158;28;20273;-71
2021/05/13 01:36:32;;;;;;;7.43;2.80;;;9.60;99.90;;;;;;5073107;28;20204;-70
2021/05/13 01:39:00;;;;;;;3.80;2.78;;;9.60;99.90;;;;;;5072767;28;20224;-71
2021/05/13 01:41:26;;;;;;;5.80;3.10;;;9.60;99.90;;;;;;5073521;28;20535;-71
2021/05/13 01:43:52;;;;;;;4.32;3.60;;;9.70;99.90;;;;;;5073041;28;20211;-71
2021/05/13 01:46:18;;;;;;;3.90;3.05;;;9.70;99.90;;;;;;5073206;28;20631;-71
2021/05/13 01:48:45;;;;;;;4.30;3.58;;;9.70;99.90;;;;;;5072860;28;20197;-70
2021/05/13 01:51:11;;;;;;;4.60;3.70;;;9.70;99.90;;;;;;5072982;28;20228;-71
2021/05/13 01:53:40;;;;;;;6.03;4.25;;;9.70;99.90;;;;;;5073375;28;20204;-71
2021/05/13 01:56:07;;;;;;;5.55;3.30;;;9.60;99.90;;;;;;5072651;28;20205;-71
2021/05/13 01:58:34;;;;;;;4.05;3.50;;;9.50;99.90;;;;;;5072875;28;20224;-71
2021/05/13 02:01:00;;;;;;;4.80;4.13;;;9.50;99.90;;;;;;5072673;28;20240;-71
2021/05/13 02:03:26;;;;;;;6.53;3.65;;;9.50;99.90;;;;;;5072813;28;20205;-71
2021/05/13 02:05:53;;;;;;;6.72;3.58;;;9.40;99.90;;;;;;5072731;28;20294;-72
2021/05/13 02:08:19;;;;;;;4.88;3.60;;;9.40;99.90;;;;;;5072185;28;20213;-71
2021/05/13 02:10:45;;;;;;;3.55;3.25;;;9.30;99.90;;;;;;5072569;28;20220;-70
2021/05/13 02:13:12;;;;;;;4.75;3.50;;;9.20;99.90;;;;;;5072674;28;20211;-71
2021/05/13 02:15:40;;;;;;;5.75;4.45;;;9.20;99.90;;;;;;5072612;28;20211;-71
2021/05/13 02:18:06;;;;;;;5.28;3.90;;;9.20;99.90;;;;;;5072231;28;20223;-71
2021/05/13 02:20:33;;;;;;;3.92;3.53;;;9.10;99.90;;;;;;5072482;28;20235;-70
2021/05/13 02:23:00;;;;;;;3.90;3.35;;;9.00;99.90;;;;;;5072360;28;20613;-71
2021/05/13 02:25:28;;;;;;;3.55;3.25;;;9.00;99.90;;;;;;5072705;28;20204;-71
2021/05/13 02:27:54;;;;;;;4.18;3.00;;;8.90;99.90;;;;;;5071961;28;20621;-71
2021/05/13 02:30:21;;;;;;;4.70;4.05;;;8.90;99.90;;;;;;5072231;28;20220;-71
2021/05/13 02:32:48;;;;;;;3.28;2.90;;;9.00;99.90;;;;;;5072217;28;20211;-71
2021/05/13 02:35:15;;;;;;;4.20;3.80;;;9.00;99.90;;;;;;5072215;28;20212;-71
2021/05/13 02:37:42;;;;;;;3.42;3.05;;;8.90;99.90;;;;;;5072075;28;20208;-70
2021/05/13 02:40:10;;;;;;;3.70;3.35;;;8.90;99.90;;;;;;5072575;28;20734;-72
2021/05/13 02:42:36;;;;;;;4.40;3.45;;;8.80;99.90;;;;;;5074350;28;20601;-72
2021/05/13 02:45:04;;;;;;;3.70;3.40;;;8.80;99.90;;;;;;5072773;28;20315;-70
2021/05/13 02:47:31;;;;;;;4.25;3.58;;;8.70;99.90;;;;;;5072172;28;20208;-71
2021/05/13 02:49:57;;;;;;;4.10;3.70;;;8.70;99.90;;;;;;5071642;28;20203;-71
2021/05/13 02:52:24;;;;;;;3.22;2.90;;;8.70;99.90;;;;;;5072134;28;20295;-71
2021/05/13 02:54:50;;;;;;;4.65;3.53;;;8.70;99.90;;;;;;5071931;28;20672;-71
2021/05/13 02:57:16;;;;;;;5.05;3.60;;;8.70;99.90;;;;;;5071820;28;20196;-71
2021/05/13 02:59:45;;;;;;;4.15;3.58;;;8.60;99.90;;;;;;5071916;28;20219;-71
2021/05/13 03:02:13;;;;;;;4.35;3.40;;;8.50;99.90;;;;;;5071766;28;20225;-70
2021/05/13 03:04:41;;;;;;;4.35;3.03;;;8.50;99.90;;;;;;5071887;28;20235;-71
2021/05/13 03:07:08;;;;;;;3.97;3.60;;;8.50;99.90;;;;;;5071594;28;20200;-71
2021/05/13 03:09:37;;;;;;;3.67;3.10;;;8.40;99.90;;;;;;5071715;28;20283;-72
2021/05/13 03:12:04;;;;;;;3.83;3.53;;;8.40;99.90;;;;;;5071301;28;20622;-71
2021/05/13 03:14:30;;;;;;;4.95;3.30;;;8.40;99.90;;;;;;5071347;28;20204;-71
2021/05/13 03:16:57;;;;;;;5.82;3.60;;;8.30;99.90;;;;;;5071476;28;20301;-71
2021/05/13 03:19:28;;;;;;;4.70;2.97;;;8.40;99.90;;;;;;5071104;28;20274;-71
2021/05/13 03:21:57;;;;;;;5.00;3.60;;;8.40;99.90;;;;;;5071541;28;20656;-71
2021/05/13 03:24:30;;;;;;;4.05;3.63;;;8.40;99.90;;;;;;5071031;28;20215;-71
2021/05/13 03:27:02;;;;;;;4.10;3.28;;;8.40;99.90;;;;;;5071102;28;20204;-71
2021/05/13 03:29:29;;;;;;;3.55;3.25;;;8.50;99.90;;;;;;5071074;28;20286;-70
2021/05/13 03:31:55;;;;;;;6.20;4.20;;;8.40;99.90;;;;;;5071043;28;20588;-71
2021/05/13 03:34:21;;;;;;;3.97;3.58;;;8.50;99.90;;;;;;5070162;28;20200;-72
2021/05/13 03:36:47;;;;;;;4.65;4.18;;;8.40;99.90;;;;;;5071007;28;20200;-71
2021/05/13 03:39:14;;;;;;;4.90;4.20;;;8.40;99.90;;;;;;5070251;28;20231;-71
2021/05/13 03:41:40;;;;;;;4.97;3.85;;;8.40;99.90;;;;;;5071078;28;20220;-72
2021/05/13 03:44:07;;;;;;;4.25;3.85;;;8.40;99.90;;;;;;5070706;28;20606;-71
2021/05/13 03:46:33;;;;;;;5.20;3.72;;;8.50;99.90;;;;;;5071026;28;20215;-71
2021/05/13 03:48:59;;;;;;;4.53;4.13;;;8.50;99.90;;;;;;5070281;28;20204;-71
2021/05/13 03:51:26;;;;;;;4.60;4.20;;;8.40;99.90;;;;;;5070734;28;20227;-71
2021/05/13 03:53:52;;;;;;;5.05;3.80;;;8.40;99.90;;;;;;5070616;28;20204;-71
2021/05/13 03:56:19;;;;;;;4.22;3.83;;;8.40;99.90;;;;;;5070303;28;20197;-71
2021/05/13 03:58:49;;;;;;;4.25;3.85;;;8.40;99.90;;;;;;5070567;28;20254;-71
2021/05/13 04:01:27;;;;;;;4.68;3.95;;;8.40;99.90;;;;;;5070683;28;20213;-71
2021/05/13 04:03:54;;;;;;;4.97;3.80;;;8.50;99.90;;;;;;5070694;28;20200;-70
2021/05/13 04:06:20;;;;;;;4.22;3.90;;;8.50;99.90;;;;;;5070428;28;20212;-71
2021/05/13 04:08:49;;;;;;;5.80;4.20;;;8.50;99.90;;;;;;5070190;28;20197;-71
2021/05/13 04:11:15;;;;;;;4.95;4.45;;;8.50;99.90;;;;;;5070381;28;20589;-71
2021/05/13 04:13:42;;;;;;;4.13;3.50;;;8.50;99.90;;;;;;5070458;28;20200;-71
2021/05/13 04:16:08;;;;;;;5.78;4.43;;;8.50;99.90;;;;;;5070308;28;20204;-71
2021/05/13 04:18:34;;;;;;;7.88;4.78;;;8.50;99.90;;;;;;5070465;28;20345;-70
2021/05/13 04:21:00;;;;;;;5.75;4.15;;;8.60;99.90;;;;;;5070061;28;20224;-71
2021/05/13 04:23:27;;;;;;;6.60;4.00;;;8.60;99.90;;;;;;5070450;28;20204;-72
2021/05/13 04:25:53;;;;;;;4.70;4.25;;;8.60;99.90;;;;;;5070427;28;20205;-71
2021/05/13 04:28:19;;;;;;;4.28;3.88;;;8.70;99.90;;;;;;5069490;28;20207;-71
2021/05/13 04:30:46;;;;;;;4.55;4.15;;;8.80;99.90;;;;;;5070015;28;20588;-71
2021/05/13 04:33:13;;;;;;;4.47;3.97;;;8.80;99.90;;;;;;5069936;28;20565;-72
2021/05/13 04:35:39;;;;;;;4.35;3.88;;;8.80;99.90;;;;;;5069193;28;20201;-72
2021/05/13 04:38:05;;;;;;;4.47;4.05;;;8.90;99.90;;;;;;5069659;28;20243;-72
2021/05/13 04:40:32;;;;;;;5.07;4.60;;;8.90;99.90;;;;;;5069952;28;20231;-71
2021/05/13 04:42:58;;;;;;;5.30;4.15;;;8.90;99.90;;;;;;5070186;28;20208;-71
2021/05/13 04:45:25;;;;;;;4.82;4.20;;;9.10;99.90;;;;;;5071910;28;20279;-71
2021/05/13 04:50:33;;;;;;;4.72;4.32;;;9.20;99.90;;;;;;5071623;28;20255;-71
2021/05/13 04:53:01;;;;;;;5.00;4.50;;;9.20;99.90;;;;;;5073799;28;20559;-71
2021/05/13 04:55:27;;;;;;;5.40;4.93;;;9.30;99.90;;;;;;5073608;28;20204;-71
2021/05/13 04:57:55;;;;;;;4.70;4.30;;;9.40;99.90;;;;;;5073461;28;20283;-72
2021/05/13 05:00:22;;;;;;;5.47;4.60;;;9.40;99.90;;;;;;5073443;28;20248;-72
2021/05/13 05:02:48;;;;;;;4.65;4.13;;;9.40;99.90;;;;;;5073673;28;20192;-71
2021/05/13 05:05:15;;;;;;;5.00;4.03;;;9.40;99.90;;;;;;5073567;28;20449;-71
2021/05/13 05:07:41;;;;;;;4.30;3.90;;;9.40;99.90;;;;;;5073412;28;20209;-72
2021/05/13 05:10:08;;;;;;;8.63;4.50;;;9.40;99.90;;;;;;5073168;28;20224;-71
2021/05/13 05:12:35;;;;;;;5.32;4.47;;;9.50;99.90;;;;;;5073553;28;20208;-70
2021/05/13 05:15:01;;;;;;;5.18;4.22;;;9.50;99.90;;;;;;5073141;28;20204;-71
2021/05/13 05:17:27;;;;;;;5.18;4.60;;;9.60;99.90;;;;;;5073172;28;20219;-71
2021/05/13 05:19:53;;;;;;;4.45;3.58;;;9.70;99.90;;;;;;5072749;28;20223;-71
2021/05/13 05:22:21;;;;;;;9.00;4.53;;;9.70;99.90;;;;;;5094326;23;20734;-74
2021/05/13 05:24:47;;;;;;;5.60;4.55;;;9.70;99.90;;;;;;5064942;28;20219;-72
2021/05/13 05:27:13;;;;;;;6.05;4.55;;;9.80;99.90;;;;;;5073091;28;20203;-72
2021/05/13 05:29:39;;;;;;;5.82;5.20;;;9.90;99.90;;;;;;5072490;28;20203;-73
2021/05/13 05:32:06;;;;;;;5.50;5.00;;;10.00;99.90;;;;;;5072782;28;20651;-73
2021/05/13 05:34:32;;;;;;;5.53;5.03;;;10.10;99.90;;;;;;5072608;28;20208;-72
2021/05/13 05:36:58;;;;;;;6.55;4.80;;;10.20;99.90;;;;;;5073131;28;20200;-73
2021/05/13 05:39:25;;;;;;;6.15;5.05;;;10.30;99.90;;;;;;5072717;28;20676;-73
2021/05/13 05:41:53;;;;;;;7.70;5.13;;;10.30;99.90;;;;;;5073157;28;20259;-73
2021/05/13 05:44:19;;;;;;;6.07;5.28;;;10.40;99.90;;;;;;5072984;28;20197;-73
2021/05/13 05:46:46;;;;;;;11.50;4.75;;;10.50;99.90;;;;;;5072942;28;20203;-73
2021/05/13 05:49:12;;;;;;;7.70;5.55;;;10.50;99.90;;;;;;5072571;28;20211;-73
2021/05/13 05:51:38;;;;;;;7.63;5.25;;;10.60;99.90;;;;;;5072449;28;20232;-73
2021/05/13 05:54:06;;;;;;;7.43;5.05;;;10.60;99.90;;;;;;5072870;28;20254;-72
2021/05/13 05:56:33;;;;;;;6.25;4.95;;;10.70;99.90;;;;;;5071666;28;20213;-73
2021/05/13 05:59:00;;;;;;;7.28;4.72;;;10.70;99.90;;;;;;5072508;28;20201;-73
2021/05/13 06:01:26;;;;;;;6.03;4.75;;;10.80;99.90;;;;;;5072429;28;20738;-72
2021/05/13 06:03:52;;;;;;;7.40;6.35;;;10.80;99.90;;;;;;5072351;28;20741;-71
2021/05/13 06:06:19;;;;;;;5.15;4.65;;;10.90;99.90;;;;;;5072485;28;20202;-73
2021/05/13 06:08:45;;;;;;;5.70;5.18;;;10.90;99.90;;;;;;5072344;28;20200;-72
2021/05/13 06:11:11;;;;;;;6.95;6.25;;;11.00;99.90;;;;;;5072368;28;20216;-72
2021/05/13 06:13:38;;;;;;;5.60;5.10;;;11.00;99.90;;;;;;5072120;28;20249;-72
2021/05/13 06:16:06;;;;;;;5.30;4.85;;;11.10;99.90;;;;;;5071954;28;20686;-73
2021/05/13 06:18:32;;;;;;;6.43;4.70;;;11.20;99.90;;;;;;5071772;28;20227;-72
2021/05/13 06:20:58;;;;;;;6.65;5.15;;;11.30;99.90;;;;;;5072012;28;20612;-71
2021/05/13 06:23:24;;;;;;;6.18;5.00;;;11.30;99.90;;;;;;5072000;28;20200;-71
2021/05/13 06:25:50;;;;;;;6.00;4.80;;;11.30;99.90;;;;;;5071993;28;20204;-71
2021/05/13 06:28:17;;;;;;;10.00;4.50;;;11.40;99.90;;;;;;5071446;28;20675;-72
2021/05/13 06:30:46;;;;;;;6.15;4.78;;;11.50;99.90;;;;;;5071783;28;20220;-72
2021/05/13 06:33:12;;;;;;;4.93;4.43;;;11.50;99.90;;;;;;5070804;28;20218;-72
2021/05/13 06:35:38;;;;;;;6.40;5.80;;;11.60;99.90;;;;;;5072202;28;20210;-71
2021/05/13 06:38:05;;;;;;;6.28;4.65;;;11.70;99.90;;;;;;5071449;28;20879;-71
2021/05/13 06:40:31;;;;;;;7.15;5.05;;;11.80;99.90;;;;;;5071231;28;20737;-69
2021/05/13 06:42:57;;;;;;;6.78;5.95;;;11.90;99.90;;;;;;5070531;28;20450;-69
2021/05/13 06:45:23;;;;;;;5.82;5.07;;;12.00;99.90;;;;;;5071378;28;20204;-71
2021/05/13 06:47:50;;;;;;;6.50;4.57;;;12.10;99.90;;;;;;5071548;28;20212;-71
2021/05/13 06:50:19;;;;;;;4.70;4.30;;;12.20;99.90;;;;;;5070016;28;20258;-70
2021/05/13 06:52:45;;;;;;;5.22;4.15;;;12.20;99.90;;;;;;5071436;28;20205;-70
2021/05/13 06:55:12;;;;;;;4.90;4.50;;;12.30;99.90;;;;;;5071477;28;20601;-69
2021/05/13 06:57:38;;;;;;;4.20;3.80;;;12.40;99.90;;;;;;5071092;28;20204;-70
2021/05/13 07:00:05;;;;;;;6.22;3.60;;;12.40;99.90;;;;;;5071390;28;20320;-70
2021/05/13 07:02:33;;;;;;;3.72;3.42;;;12.50;99.90;;;;;;5071122;28;20220;-70
2021/05/13 07:05:02;;;;;;;5.50;3.50;;;12.60;99.90;;;;;;5071526;28;20215;-70
2021/05/13 07:07:28;;;;;;;4.10;3.00;;;12.70;99.90;;;;;;5070899;28;20211;-70
2021/05/13 07:09:55;;;;;;;4.70;3.50;;;12.80;99.90;;;;;;5070987;28;20258;-70
2021/05/13 07:12:21;;;;;;;3.73;3.33;;;12.90;99.90;;;;;;5070829;28;20628;-69
2021/05/13 07:14:47;;;;;;;6.60;3.93;;;13.00;99.90;;;;;;5070853;28;20988;-70
2021/05/13 07:17:13;;;;;;;4.20;3.80;;;13.10;99.90;;;;;;5071064;28;20470;-71
2021/05/13 07:19:40;;;;;;;6.27;4.07;;;13.20;99.90;;;;;;5070472;28;20487;-71
2021/05/13 07:22:07;;;;;;;5.43;3.97;;;13.40;99.90;;;;;;5070850;28;20490;-71
2021/05/13 07:24:33;;;;;;;5.50;3.90;;;13.50;99.90;;;;;;5070822;28;20462;-72
2021/05/13 07:26:59;;;;;;;4.77;3.50;;;13.80;99.90;;;;;;5070661;28;20462;-71
2021/05/13 07:29:25;;;;;;;8.20;3.67;;;13.90;99.90;;;;;;5069637;28;20462;-71
2021/05/13 07:31:52;;;;;;;4.20;3.60;;;14.10;99.90;;;;;;5070556;28;20915;-71
2021/05/13 07:34:18;;;;;;;8.50;3.70;;;14.20;99.90;;;;;;5070955;28;20462;-71
2021/05/13 07:36:45;;;;;;;5.53;3.90;;;14.30;99.90;;;;;;5070798;28;20820;-71
2021/05/13 07:39:12;;;;;;;8.87;4.37;;;14.40;99.90;;;;;;5070436;28;20829;-71
2021/05/13 07:41:38;;;;;;;6.03;3.77;;;14.50;99.90;;;;;;5070281;28;20481;-72
2021/05/13 07:44:06;;;;;;;3.73;3.43;;;14.60;99.90;;;;;;5069990;28;20469;-70
2021/05/13 07:46:37;;;;;;;4.53;3.30;;;14.70;99.90;;;;;;5070337;28;20458;-71
2021/05/13 07:49:03;;;;;;;4.13;3.73;;;14.80;99.90;;;;;;5070466;28;20969;-72
2021/05/13 07:51:30;;;;;;;4.93;3.13;;;15.00;99.90;;;;;;5068898;28;20466;-71
2021/05/13 07:53:56;;;;;;;3.17;2.83;;;15.10;99.90;;;;;;5069245;28;20519;-70
2021/05/13 07:56:23;;;;;;;4.13;3.17;;;15.30;99.90;;;;;;5066277;28;20446;-71
2021/05/13 07:58:49;;;;;;;3.90;2.83;;;15.40;99.90;;;;;;5069578;28;20458;-70
2021/05/13 08:01:15;;;;;;;3.27;2.97;;;15.50;99.90;;;;;;5069230;28;20482;-71
2021/05/13 08:03:42;;;;;;;4.60;3.60;;;15.70;99.90;;;;;;5066216;28;20465;-71
2021/05/13 08:06:08;;;;;;;3.70;3.40;;;15.80;99.90;;;;;;5069063;28;20943;-71
2021/05/13 08:08:34;;;;;;;3.90;3.40;;;15.90;99.90;;;;;;5068679;28;20464;-71
2021/05/13 08:11:01;;;;;;;3.50;3.20;;;15.90;99.90;;;;;;5069010;28;20474;-70
2021/05/13 08:13:30;;;;;;;5.00;2.70;;;16.10;99.90;;;;;;5068943;28;20458;-71
2021/05/13 08:15:56;;;;;;;2.60;2.30;;;16.10;99.90;;;;;;5069094;28;20875;-71
2021/05/13 08:18:22;;;;;;;3.70;2.93;;;16.10;99.90;;;;;;5068522;28;20466;-72
2021/05/13 08:20:49;;;;;;;3.77;2.63;;;16.10;99.90;;;;;;5071918;28;20556;-72
2021/05/13 08:23:15;;;;;;;2.50;2.30;;;15.90;99.90;;;;;;5072818;28;20454;-74
2021/05/13 08:25:42;;;;;;;3.20;2.60;;;15.70;99.90;;;;;;5072866;28;20515;-71
2021/05/13 08:28:09;;;;;;;2.30;2.10;;;15.60;99.90;;;;;;5072541;28;20446;-71
2021/05/13 08:30:36;;;;;;;3.97;2.60;;;15.40;99.90;;;;;;5072612;28;20485;-73
2021/05/13 08:33:02;;;;;;;2.67;1.80;;;15.30;99.90;;;;;;5072963;28;20450;-71
2021/05/13 08:35:29;;;;;;;1.47;1.37;;;15.20;99.90;;;;;;5072693;28;20450;-71
2021/05/13 08:37:55;;;;;;;3.03;2.00;;;15.10;99.90;;;;;;5072519;28;20477;-71
2021/05/13 08:40:21;;;;;;;3.53;2.10;;;14.90;99.90;;;;;;5072436;28;20527;-72
2021/05/13 08:42:48;;;;;;;2.63;1.70;;;14.70;99.90;;;;;;5072013;28;20493;-71
2021/05/13 08:45:15;;;;;;;3.00;1.83;;;14.60;99.90;;;;;;5073091;28;20467;-73
2021/05/13 08:47:45;;;;;;;4.10;1.90;;;14.50;99.90;;;;;;5072686;28;20454;-72
2021/05/13 08:50:12;;;;;;;3.63;1.90;;;14.70;99.90;;;;;;5072272;28;20457;-72
2021/05/13 08:52:38;;;;;;;2.50;1.70;;;15.10;99.90;;;;;;5072678;28;20479;-72
2021/05/13 08:55:06;;;;;;;2.50;1.80;;;15.40;99.90;;;;;;5072561;28;20455;-72
2021/05/13 08:57:32;;;;;;;8.40;1.87;;;15.70;99.90;;;;;;5072326;28;21014;-71
2021/05/13 08:59:59;;;;;;;2.10;1.43;;;16.20;99.90;;;;;;5072189;28;20522;-72
2021/05/13 09:02:28;;;;;;;2.60;2.07;;;16.60;99.90;;;;;;5072557;28;20528;-71
2021/05/13 09:04:56;;;;;;;2.20;1.67;;;16.90;99.90;;;;;;5072776;28;20459;-72
2021/05/13 09:07:26;;;;;;;2.60;1.70;;;17.00;99.90;;;;;;5070653;28;20458;-71
2021/05/13 09:09:57;;;;;;;3.50;1.70;;;17.20;99.90;;;;;;5073269;28;20942;-71
2021/05/13 09:12:25;;;;;;;1.53;1.40;;;17.50;99.90;;;;;;5073299;28;20485;-71
2021/05/13 09:15:18;;;;;;;2.40;1.57;;;17.80;99.90;;;;;;5073505;28;20488;-71
2021/05/13 09:17:47;;;;;;;4.60;1.80;;;18.00;99.90;;;;;;5072352;28;20455;-71
2021/05/13 09:20:32;;;;;;;6.63;1.70;;;17.90;99.40;;;;;;5075801;28;20482;-71
2021/05/13 09:23:13;;;;;;;4.00;1.70;;;17.90;99.90;;;;;;5073923;28;20454;-71
2021/05/13 09:25:40;;;;;;;2.03;1.43;;;17.80;99.90;;;;;;5072863;28;20553;-71
2021/05/13 09:28:07;;;;;;;3.30;1.60;;;17.80;99.90;;;;;;5074038;28;20799;-71
2021/05/13 09:30:35;;;;;;;4.30;2.07;;;17.60;99.90;;;;;;5072759;28;20516;-70
2021/05/13 09:33:03;;;;;;;2.67;1.83;;;17.30;99.90;;;;;;5073624;28;20930;-71
2021/05/13 09:35:31;;;;;;;4.50;2.10;;;17.30;99.90;;;;;;5073723;28;20463;-70
2021/05/13 09:38:00;;;;;;;2.43;1.97;;;17.20;99.90;;;;;;5073656;28;20454;-71
2021/05/13 09:40:34;;;;;;;2.20;1.87;;;17.10;99.90;;;;;;5073628;28;20854;-73
2021/05/13 09:43:10;;;;;;;4.13;2.40;;;16.90;99.90;;;;;;5073625;28;20463;-71
2021/05/13 09:45:44;;;;;;;3.53;2.00;;;16.80;99.90;;;;;;5073819;28;20886;-70
2021/05/13 09:48:10;;;;;;;3.43;2.57;;;16.70;99.90;;;;;;5073652;28;20520;-71
2021/05/13 09:50:37;;;;;;;2.30;2.10;;;16.80;99.90;;;;;;5072426;28;20969;-71
2021/05/13 09:53:04;;;;;;;3.53;1.80;;;16.80;99.90;;;;;;5070617;28;20485;-69
2021/05/13 09:55:31;;;;;;;3.93;2.00;;;16.70;99.90;;;;;;5060814;28;20461;-70
2021/05/13 09:58:02;;;;;;;4.30;2.10;;;16.60;99.90;;;;;;5050729;28;20467;-70
2021/05/13 10:00:47;;;;;;;2.37;1.80;;;16.60;99.90;;;;;;5050715;28;20479;-70
2021/05/13 10:03:17;;;;;;;1.80;1.70;;;16.40;99.90;;;;;;5060987;28;20902;-71
2021/05/13 10:05:47;;;;;;;3.77;1.70;;;16.40;99.90;;;;;;5070737;28;20454;-71
2021/05/13 10:08:14;;;;;;;4.50;2.23;;;16.20;99.90;;;;;;5069926;28;20458;-71
2021/05/13 10:10:41;;;;;;;2.37;2.00;;;16.10;99.90;;;;;;5070383;28;20470;-71
2021/05/13 10:13:08;;;;;;;2.90;1.93;;;16.20;99.90;;;;;;5070686;28;20466;-70
2021/05/13 10:15:38;;;;;;;4.43;2.00;;;16.10;99.90;;;;;;5070148;28;20957;-70
2021/05/13 10:18:13;;;;;;;1.70;1.30;;;16.10;99.90;;;;;;5070260;28;21043;-70
2021/05/13 10:20:40;;;;;;;4.43;2.13;;;16.00;99.90;;;;;;5069956;28;21024;-71
2021/05/13 10:23:06;;;;;;;3.23;1.80;;;16.00;99.90;;;;;;5070213;28;20462;-71
2021/05/13 10:25:36;;;;;;;3.10;1.70;;;16.00;99.90;;;;;;5070379;28;20467;-70
2021/05/13 10:28:04;;;;;;;2.50;1.47;;;16.00;99.90;;;;;;5067291;28;20466;-71
2021/05/13 10:30:31;;;;;;;3.27;1.77;;;16.20;99.90;;;;;;5069562;28;20511;-70
2021/05/13 10:33:17;;;;;;;3.47;1.80;;;16.30;99.90;;;;;;5070489;28;20497;-70
2021/05/13 10:36:07;;;;;;;6.70;1.80;;;16.30;99.90;;;;;;5069949;28;20835;-72
2021/05/13 10:38:46;;;;;;;2.90;1.50;;;16.40;99.90;;;;;;5052345;28;21128;-70
2021/05/13 10:41:42;;;;;;;2.47;1.40;;;16.50;99.90;;;;;;5050168;28;21073;-70
2021/05/13 10:44:37;;;;;;;3.93;1.63;;;16.20;99.80;;;;;;5049920;28;20811;-72
2021/05/13 10:47:04;;;;;;;2.13;1.60;;;16.00;99.90;;;;;;5050024;28;20467;-71
2021/05/13 10:49:31;;;;;;;2.27;1.73;;;15.80;99.90;;;;;;5049728;28;20459;-71
2021/05/13 10:51:58;;;;;;;2.20;1.60;;;15.60;99.90;;;;;;5049941;28;20570;-72
2021/05/13 10:54:44;;;;;;;2.03;1.40;;;15.50;99.90;;;;;;5049537;28;21053;-70
2021/05/13 10:57:17;;;;;;;4.07;1.83;;;15.50;99.90;;;;;;5049492;28;20451;-70
2021/05/13 11:00:17;;;;;;;5.10;1.50;;;15.50;99.90;;;;;;5049214;28;20963;-69
2021/05/13 11:02:44;;;;;;;2.87;1.67;;;15.50;99.90;;;;;;5049706;28;20464;-71
2021/05/13 11:05:38;;;;;;;2.07;1.37;;;15.50;99.90;;;;;;5056319;28;20492;-69
2021/05/13 11:08:24;;;;;;;6.57;1.90;;;15.60;99.90;;;;;;5068820;28;20455;-69
2021/05/13 11:10:57;;;;;;;1.80;1.50;;;15.90;99.90;;;;;;5069715;28;20482;-71
2021/05/13 11:13:39;;;;;;;5.47;3.50;;;16.30;99.90;;;;;;5068939;28;20901;-70
2021/05/13 11:16:05;;;;;;;4.60;1.37;;;16.80;99.70;;;;;;5069602;28;20540;-71
2021/05/13 11:18:32;;;;;;;2.43;1.90;;;17.20;98.40;;;;;;5068429;28;20473;-70
2021/05/13 11:20:59;;;;;;;2.77;1.43;;;17.60;98.40;;;;;;5069290;28;20490;-71
2021/05/13 11:23:28;;;;;;;1.60;1.50;;;18.10;97.60;;;;;;5068872;28;20488;-71
2021/05/13 11:25:56;;;;;;;4.23;1.63;;;18.50;96.10;;;;;;5069248;28;20494;-70
2021/05/13 11:28:30;;;;;;;1.97;1.33;;;18.80;95.60;;;;;;5068844;28;20470;-71
2021/05/13 11:31:09;;;;;;;2.40;1.43;;;19.00;95.70;;;;;;5069225;28;20566;-71
2021/05/13 11:33:39;;;;;;;1.77;1.40;;;19.30;93.90;;;;;;5068910;28;20466;-71
2021/05/13 11:36:07;;;;;;;2.10;1.20;;;19.40;94.70;;;;;;5068693;28;20458;-72
2021/05/13 11:38:33;;;;;;;2.90;1.30;;;19.30;94.60;;;;;;5066129;28;20958;-71
2021/05/13 11:40:59;;;;;;;2.20;1.20;;;19.20;93.90;;;;;;5068465;28;20503;-71
2021/05/13 11:43:28;;;;;;;2.33;1.47;;;19.00;94.30;;;;;;5068094;28;20454;-71
2021/05/13 11:45:56;;;;;;;2.70;1.30;;;18.60;94.20;;;;;;5066989;28;20515;-71
2021/05/13 11:48:25;;;;;;;1.10;0.90;;;18.20;95.00;;;;;;5066707;28;20914;-71
2021/05/13 11:50:52;;;;;;;2.07;1.33;;;17.90;95.60;;;;;;5067560;28;20563;-71
2021/05/13 11:53:19;;;;;;;1.50;1.30;;;17.60;96.60;;;;;;5068437;28;20462;-71
2021/05/13 11:55:47;;;;;;;2.23;1.40;;;17.40;97.70;;;;;;5068104;28;21717;-71
2021/05/13 11:58:16;;;;;;;1.60;1.30;;;17.20;97.20;;;;;;5067009;28;20459;-71
2021/05/13 12:00:43;;;;;;;1.57;1.20;;;17.00;97.90;;;;;;5068219;28;20494;-72
2021/05/13 12:03:11;;;;;;;2.67;1.27;;;16.80;97.70;;;;;;5068358;28;20459;-72
2021/05/13 12:05:48;;;;;;;2.33;1.23;;;16.70;97.90;;;;;;5067736;28;21526;-71
2021/05/13 12:08:16;;;;;;;1.70;1.30;;;16.50;98.30;;;;;;5066910;28;20962;-71
2021/05/13 12:10:42;;;;;;;2.87;1.30;;;16.50;98.20;;;;;;5068427;28;20512;-71
2021/05/13 12:13:09;;;;;;;1.73;1.30;;;16.20;97.70;;;;;;5068188;28;20450;-71
2021/05/13 12:15:35;;;;;;;2.53;1.30;;;16.00;96.90;;;;;;5068449;28;20459;-71
2021/05/13 12:18:03;;;;;;;1.60;1.20;;;15.90;97.20;;;;;;5067215;28;20458;-71
2021/05/13 12:20:31;;;;;;;3.50;1.20;;;16.00;97.50;;;;;;5068228;28;20489;-73
2021/05/13 12:22:58;;;;;;;2.07;1.30;;;16.00;94.60;;;;;;5068820;28;20465;-72
2021/05/13 12:25:25;;;;;;;1.47;1.00;;;16.00;95.00;;;;;;5068478;28;20458;-71
2021/05/13 12:27:51;;;;;;;3.27;1.23;;;16.10;95.20;;;;;;5068337;28;20458;-73
2021/05/13 12:30:19;;;;;;;2.67;1.20;;;16.10;94.90;;;;;;5068654;28;20465;-73
2021/05/13 12:32:45;;;;;;;1.97;1.17;;;16.20;95.20;;;;;;5068784;28;20885;-72
2021/05/13 12:35:25;;;;;;;3.27;1.20;;;16.20;96.10;;;;;;5068926;28;20469;-71
2021/05/13 12:37:52;;;;;;;1.27;1.07;;;16.20;95.50;;;;;;5068209;28;20458;-72
2021/05/13 12:40:19;;;;;;;1.40;1.00;;;16.20;95.30;;;;;;5068812;28;20882;-71
2021/05/13 12:42:46;;;;;;;1.00;0.90;;;16.20;95.90;;;;;;5068711;28;20832;-69
2021/05/13 12:45:13;;;;;;;1.40;1.20;;;16.30;95.70;;;;;;5067448;28;20470;-70
2021/05/13 12:47:40;;;;;;;1.23;1.13;;;16.40;95.60;;;;;;5065216;28;20473;-70
2021/05/13 12:50:07;;;;;;;3.47;1.00;;;16.50;95.00;;;;;;5053832;28;20509;-72
2021/05/13 12:52:34;;;;;;;2.60;2.30;;;16.60;94.40;;;;;;5059296;28;20507;-71
2021/05/13 12:55:11;;;;;;;2.10;1.40;;;16.70;94.30;;;;;;5048391;28;20470;-70
2021/05/13 12:57:42;;;;;;;1.43;1.10;;;16.80;94.30;;;;;;5048057;28;20553;-72